sensor_id;sensor_type;location;lat;lon;timestamp;pressure;altitude;pressure_sealevel;temperature;humidity
40205;BME280;26963;42.666;23.366;2022-08-01T00:00:09;94843.09;;;22.81;42.54
40205;BME280;26963;42.666;23.366;2022-08-01T00:02:38;94797.59;;;22.51;42.36
40205;BME280;26963;42.666;23.366;2022-08-01T00:05:04;94841.22;;;22.85;42.43
40205;BME280;26963;42.666;23.366;2022-08-01T00:07:34;94847.84;;;22.84;42.82
40205;BME280;26963;42.666;23.366;2022-08-01T00:10:11;94822.78;;;22.75;42.38
40205;BME280;26963;42.666;23.366;2022-08-01T00:12:37;94829.06;;;22.79;42.32
40205;BME280;26963;42.666;23.366;2022-08-01T00:15:04;94837.72;;;22.88;42.05
40205;BME280;26963;42.666;23.366;2022-08-01T00:17:31;94838.50;;;22.85;42.14
40205;BME280;26963;42.666;23.366;2022-08-01T00:19:56;94834.19;;;22.84;41.88
40205;BME280;26963;42.666;23.366;2022-08-01T00:22:35;94823.56;;;22.75;41.72
40205;BME280;26963;42.666;23.366;2022-08-01T00:25:03;94788.22;;;22.48;41.94
40205;BME280;26963;42.666;23.366;2022-08-01T00:27:33;94861.88;;;22.86;42.78
40205;BME280;26963;42.666;23.366;2022-08-01T00:29:58;94850.91;;;22.79;43.29
40205;BME280;26963;42.666;23.366;2022-08-01T00:32:24;94840.63;;;22.69;43.63
40205;BME280;26963;42.666;23.366;2022-08-01T00:34:50;94847.88;;;22.54;44.39
40205;BME280;26963;42.666;23.366;2022-08-01T00:37:16;94810.84;;;22.22;44.99
40205;BME280;26963;42.666;23.366;2022-08-01T00:39:41;94854.25;;;22.35;45.34
40205;BME280;26963;42.666;23.366;2022-08-01T00:42:11;94847.88;;;22.23;45.48
40205;BME280;26963;42.666;23.366;2022-08-01T00:44:37;94800.28;;;21.87;45.70
40205;BME280;26963;42.666;23.366;2022-08-01T00:47:03;94793.53;;;21.77;45.65
40205;BME280;26963;42.666;23.366;2022-08-01T00:49:29;94860.56;;;22.12;46.10
40205;BME280;26963;42.666;23.366;2022-08-01T00:51:56;94824.78;;;21.87;46.06
40205;BME280;26963;42.666;23.366;2022-08-01T00:54:25;94784.50;;;21.46;46.62
40205;BME280;26963;42.666;23.366;2022-08-01T00:56:54;94849.75;;;21.92;46.66
40205;BME280;26963;42.666;23.366;2022-08-01T00:59:21;94800.91;;;21.53;46.86
40205;BME280;26963;42.666;23.366;2022-08-01T01:01:50;94822.09;;;21.63;47.04
40205;BME280;26963;42.666;23.366;2022-08-01T01:04:18;94781.97;;;21.33;47.56
40205;BME280;26963;42.666;23.366;2022-08-01T01:09:50;94782.75;;;21.34;47.49
40205;BME280;26963;42.666;23.366;2022-08-01T01:12:20;94836.16;;;21.65;47.55
40205;BME280;26963;42.666;23.366;2022-08-01T01:17:57;94813.56;;;21.42;48.06
40205;BME280;26963;42.666;23.366;2022-08-01T01:20:28;94793.56;;;21.30;48.28
40205;BME280;26963;42.666;23.366;2022-08-01T01:28:27;94826.31;;;21.57;48.36
40205;BME280;26963;42.666;23.366;2022-08-01T01:30:58;94822.59;;;21.46;48.26
40205;BME280;26963;42.666;23.366;2022-08-01T01:33:31;94770.75;;;21.12;48.54
40205;BME280;26963;42.666;23.366;2022-08-01T01:36:05;94764.44;;;21.08;48.28
40205;BME280;26963;42.666;23.366;2022-08-01T01:38:36;94652.13;;;20.34;48.56
40205;BME280;26963;42.666;23.366;2022-08-01T01:41:03;94812.31;;;21.35;48.62
40205;BME280;26963;42.666;23.366;2022-08-01T01:43:32;94769.78;;;21.00;48.79
40205;BME280;26963;42.666;23.366;2022-08-01T01:46:17;94808.34;;;21.29;49.44
40205;BME280;26963;42.666;23.366;2022-08-01T01:48:46;94743.97;;;20.91;48.57
40205;BME280;26963;42.666;23.366;2022-08-01T01:51:13;94788.75;;;21.20;48.82
40205;BME280;26963;42.666;23.366;2022-08-01T01:53:41;94783.91;;;21.10;48.70
40205;BME280;26963;42.666;23.366;2022-08-01T01:56:08;94795.63;;;21.14;49.13
40205;BME280;26963;42.666;23.366;2022-08-01T01:58:39;94796.06;;;21.16;48.92
40205;BME280;26963;42.666;23.366;2022-08-01T02:01:08;94752.50;;;20.89;48.84
40205;BME280;26963;42.666;23.366;2022-08-01T02:03:40;94752.50;;;20.89;48.80
40205;BME280;26963;42.666;23.366;2022-08-01T02:06:11;94757.63;;;20.94;48.86
40205;BME280;26963;42.666;23.366;2022-08-01T02:08:39;94753.13;;;20.79;48.55
40205;BME280;26963;42.666;23.366;2022-08-01T02:11:09;94757.81;;;20.82;48.18
40205;BME280;26963;42.666;23.366;2022-08-01T02:13:46;94776.81;;;21.01;47.99
40205;BME280;26963;42.666;23.366;2022-08-01T02:16:16;94772.56;;;21.04;48.59
40205;BME280;26963;42.666;23.366;2022-08-01T02:18:45;94780.00;;;21.07;48.15
40205;BME280;26963;42.666;23.366;2022-08-01T02:21:17;94702.63;;;20.58;47.84
40205;BME280;26963;42.666;23.366;2022-08-01T02:23:44;94727.75;;;20.71;46.86
40205;BME280;26963;42.666;23.366;2022-08-01T02:26:14;94701.63;;;20.47;46.63
40205;BME280;26963;42.666;23.366;2022-08-01T02:28:47;94724.94;;;20.67;46.96
40205;BME280;26963;42.666;23.366;2022-08-01T02:31:17;94791.66;;;21.08;46.51
40205;BME280;26963;42.666;23.366;2022-08-01T02:33:55;94786.28;;;21.11;46.10
40205;BME280;26963;42.666;23.366;2022-08-01T02:36:25;94785.50;;;21.11;45.88
40205;BME280;26963;42.666;23.366;2022-08-01T02:38:56;94696.22;;;20.47;45.71
40205;BME280;26963;42.666;23.366;2022-08-01T02:41:33;94785.81;;;21.06;47.98
40205;BME280;26963;42.666;23.366;2022-08-01T02:44:03;94793.22;;;21.09;48.55
40205;BME280;26963;42.666;23.366;2022-08-01T02:46:38;94770.50;;;20.97;48.91
40205;BME280;26963;42.666;23.366;2022-08-01T02:49:09;94783.50;;;21.08;47.81
40205;BME280;26963;42.666;23.366;2022-08-01T02:51:39;94722.63;;;20.69;47.16
40205;BME280;26963;42.666;23.366;2022-08-01T02:54:09;94763.47;;;20.96;47.99
40205;BME280;26963;42.666;23.366;2022-08-01T02:56:43;94724.78;;;20.60;48.50
40205;BME280;26963;42.666;23.366;2022-08-01T02:59:15;94782.97;;;20.98;47.09
40205;BME280;26963;42.666;23.366;2022-08-01T03:01:42;94784.41;;;20.92;46.57
40205;BME280;26963;42.666;23.366;2022-08-01T03:04:08;94782.81;;;20.91;46.20
40205;BME280;26963;42.666;23.366;2022-08-01T03:06:35;94717.91;;;20.43;46.35
40205;BME280;26963;42.666;23.366;2022-08-01T03:09:09;94738.13;;;20.46;47.29
40205;BME280;26963;42.666;23.366;2022-08-01T03:11:37;94785.94;;;20.70;48.25
40205;BME280;26963;42.666;23.366;2022-08-01T03:14:07;94792.31;;;20.58;48.66
40205;BME280;26963;42.666;23.366;2022-08-01T03:16:37;94782.13;;;20.32;49.00
40205;BME280;26963;42.666;23.366;2022-08-01T03:19:04;94790.50;;;20.23;50.78
40205;BME280;26963;42.666;23.366;2022-08-01T03:21:31;94778.19;;;20.10;51.03
40205;BME280;26963;42.666;23.366;2022-08-01T03:23:59;94789.78;;;20.07;51.58
40205;BME280;26963;42.666;23.366;2022-08-01T03:26:33;94795.19;;;20.07;50.72
40205;BME280;26963;42.666;23.366;2022-08-01T03:29:04;94755.75;;;19.77;49.65
40205;BME280;26963;42.666;23.366;2022-08-01T03:31:36;94784.34;;;20.07;49.88
40205;BME280;26963;42.666;23.366;2022-08-01T03:34:03;94783.47;;;20.02;50.32
40205;BME280;26963;42.666;23.366;2022-08-01T03:36:31;94796.25;;;20.21;50.25
40205;BME280;26963;42.666;23.366;2022-08-01T03:39:01;94741.44;;;19.96;50.15
40205;BME280;26963;42.666;23.366;2022-08-01T03:41:33;94778.03;;;20.42;49.97
40205;BME280;26963;42.666;23.366;2022-08-01T03:44:07;94801.03;;;20.67;50.04
40205;BME280;26963;42.666;23.366;2022-08-01T03:46:48;94792.19;;;20.71;48.77
40205;BME280;26963;42.666;23.366;2022-08-01T03:49:18;94803.88;;;20.94;48.17
40205;BME280;26963;42.666;23.366;2022-08-01T03:51:49;94804.53;;;21.11;48.62
40205;BME280;26963;42.666;23.366;2022-08-01T03:54:21;94763.47;;;20.96;47.99
40205;BME280;26963;42.666;23.366;2022-08-01T03:56:50;94798.63;;;21.28;45.88
40205;BME280;26963;42.666;23.366;2022-08-01T03:59:17;94746.69;;;21.14;45.49
40205;BME280;26963;42.666;23.366;2022-08-01T04:01:45;94785.97;;;21.40;45.15
40205;BME280;26963;42.666;23.366;2022-08-01T04:04:14;94764.69;;;21.22;45.44
40205;BME280;26963;42.666;23.366;2022-08-01T04:06:40;94795.03;;;21.47;45.45
40205;BME280;26963;42.666;23.366;2022-08-01T04:09:07;94787.88;;;21.62;44.85
40205;BME280;26963;42.666;23.366;2022-08-01T04:11:33;94759.25;;;21.49;44.49
40205;BME280;26963;42.666;23.366;2022-08-01T04:13:59;94805.25;;;21.81;44.63
40205;BME280;26963;42.666;23.366;2022-08-01T04:16:32;94803.81;;;21.91;44.89
40205;BME280;26963;42.666;23.366;2022-08-01T04:19:09;94791.31;;;21.86;44.62
40205;BME280;26963;42.666;23.366;2022-08-01T04:21:35;94671.75;;;20.93;44.39
40205;BME280;26963;42.666;23.366;2022-08-01T04:24:12;94804.09;;;21.82;44.45
40205;BME280;26963;42.666;23.366;2022-08-01T04:26:40;94809.97;;;21.84;44.79
40205;BME280;26963;42.666;23.366;2022-08-01T04:29:10;94805.16;;;21.74;45.46
40205;BME280;26963;42.666;23.366;2022-08-01T04:31:39;94806.00;;;21.78;45.09
40205;BME280;26963;42.666;23.366;2022-08-01T04:34:11;94808.84;;;21.89;46.04
40205;BME280;26963;42.666;23.366;2022-08-01T04:36:42;94803.47;;;21.92;45.83
40205;BME280;26963;42.666;23.366;2022-08-01T04:39:10;94802.41;;;22.01;45.09
40205;BME280;26963;42.666;23.366;2022-08-01T04:41:39;94793.63;;;21.84;44.96
40205;BME280;26963;42.666;23.366;2022-08-01T04:44:05;94805.34;;;21.88;44.70
40205;BME280;26963;42.666;23.366;2022-08-01T04:46:34;94739.38;;;21.45;45.36
40205;BME280;26963;42.666;23.366;2022-08-01T04:49:04;94792.38;;;21.78;44.78
40205;BME280;26963;42.666;23.366;2022-08-01T04:51:33;94799.47;;;21.86;44.55
40205;BME280;26963;42.666;23.366;2022-08-01T04:54:02;94806.19;;;21.92;44.14
40205;BME280;26963;42.666;23.366;2022-08-01T04:56:27;94808.50;;;21.90;44.44
40205;BME280;26963;42.666;23.366;2022-08-01T04:58:53;94718.56;;;21.29;44.16
40205;BME280;26963;42.666;23.366;2022-08-01T05:01:39;94800.66;;;21.85;45.13
40205;BME280;26963;42.666;23.366;2022-08-01T05:04:05;94794.47;;;21.88;45.52
40205;BME280;26963;42.666;23.366;2022-08-01T05:06:33;94794.91;;;21.94;45.34
40205;BME280;26963;42.666;23.366;2022-08-01T05:08:59;94798.84;;;21.96;44.96
40205;BME280;26963;42.666;23.366;2022-08-01T05:11:24;94776.53;;;21.87;44.63
40205;BME280;26963;42.666;23.366;2022-08-01T05:13:50;94737.16;;;21.54;44.60
40205;BME280;26963;42.666;23.366;2022-08-01T05:16:19;94767.88;;;21.78;44.95
40205;BME280;26963;42.666;23.366;2022-08-01T05:19:17;94793.91;;;22.06;44.30
40205;BME280;26963;42.666;23.366;2022-08-01T05:21:49;94754.56;;;21.73;44.28
40205;BME280;26963;42.666;23.366;2022-08-01T05:24:20;94770.44;;;21.97;44.43
40205;BME280;26963;42.666;23.366;2022-08-01T05:26:49;94797.13;;;22.15;44.23
40205;BME280;26963;42.666;23.366;2022-08-01T05:29:15;94790.13;;;22.14;43.94
40205;BME280;26963;42.666;23.366;2022-08-01T05:31:46;94744.28;;;21.89;43.56
40205;BME280;26963;42.666;23.366;2022-08-01T05:34:15;94777.78;;;22.24;42.92
40205;BME280;26963;42.666;23.366;2022-08-01T05:36:42;94782.66;;;22.38;42.86
40205;BME280;26963;42.666;23.366;2022-08-01T05:39:07;94789.69;;;22.39;43.14
40205;BME280;26963;42.666;23.366;2022-08-01T05:41:33;94740.28;;;22.13;42.70
40205;BME280;26963;42.666;23.366;2022-08-01T05:43:59;94758.47;;;22.36;42.12
40205;BME280;26963;42.666;23.366;2022-08-01T05:46:31;94786.84;;;22.66;41.66
40205;BME280;26963;42.666;23.366;2022-08-01T05:49:01;94729.75;;;22.42;41.56
40205;BME280;26963;42.666;23.366;2022-08-01T05:51:30;94782.41;;;22.88;40.93
40205;BME280;26963;42.666;23.366;2022-08-01T05:53:56;94782.03;;;22.89;40.79
40205;BME280;26963;42.666;23.366;2022-08-01T05:56:22;94741.72;;;22.72;40.01
40205;BME280;26963;42.666;23.366;2022-08-01T05:58:49;94744.88;;;22.74;40.01
40205;BME280;26963;42.666;23.366;2022-08-01T06:01:16;94795.09;;;23.14;39.70
40205;BME280;26963;42.666;23.366;2022-08-01T06:03:41;94765.38;;;23.02;39.72
40205;BME280;26963;42.666;23.366;2022-08-01T06:06:07;94759.59;;;23.07;39.69
40205;BME280;26963;42.666;23.366;2022-08-01T06:08:32;94725.13;;;22.91;39.26
40205;BME280;26963;42.666;23.366;2022-08-01T06:10:58;94771.84;;;23.27;38.68
40205;BME280;26963;42.666;23.366;2022-08-01T06:13:24;94793.03;;;23.41;38.44
40205;BME280;26963;42.666;23.366;2022-08-01T06:15:49;94749.88;;;23.13;38.40
40205;BME280;26963;42.666;23.366;2022-08-01T06:18:16;94803.66;;;23.54;39.07
40205;BME280;26963;42.666;23.366;2022-08-01T06:20:44;94762.94;;;23.34;37.85
40205;BME280;26963;42.666;23.366;2022-08-01T06:23:10;94787.66;;;23.56;36.55
40205;BME280;26963;42.666;23.366;2022-08-01T06:25:38;94773.59;;;23.50;36.94
40205;BME280;26963;42.666;23.366;2022-08-01T06:28:04;94797.16;;;23.76;36.26
40205;BME280;26963;42.666;23.366;2022-08-01T06:30:33;94740.84;;;23.54;35.89
40205;BME280;26963;42.666;23.366;2022-08-01T06:33:01;94787.16;;;23.99;36.26
40205;BME280;26963;42.666;23.366;2022-08-01T06:35:33;94749.16;;;25.86;31.48
40205;BME280;26963;42.666;23.366;2022-08-01T06:37:58;94777.09;;;29.37;27.26
40205;BME280;26963;42.666;23.366;2022-08-01T06:40:24;94748.75;;;31.51;23.99
40205;BME280;26963;42.666;23.366;2022-08-01T06:42:50;94771.53;;;33.54;21.68
40205;BME280;26963;42.666;23.366;2022-08-01T06:45:16;94776.53;;;35.05;19.25
40205;BME280;26963;42.666;23.366;2022-08-01T06:47:43;94773.09;;;36.29;18.33
40205;BME280;26963;42.666;23.366;2022-08-01T06:50:12;94767.56;;;37.66;17.52
40205;BME280;26963;42.666;23.366;2022-08-01T06:52:40;94738.03;;;38.38;15.91
40205;BME280;26963;42.666;23.366;2022-08-01T06:55:15;94758.94;;;39.33;15.44
40205;BME280;26963;42.666;23.366;2022-08-01T06:57:53;94761.00;;;40.35;14.21
40205;BME280;26963;42.666;23.366;2022-08-01T07:00:25;94749.75;;;40.88;13.74
40205;BME280;26963;42.666;23.366;2022-08-01T07:02:53;94751.34;;;41.64;13.21
40205;BME280;26963;42.666;23.366;2022-08-01T07:05:22;94751.91;;;42.29;12.98
40205;BME280;26963;42.666;23.366;2022-08-01T07:07:54;94703.63;;;42.53;12.70
40205;BME280;26963;42.666;23.366;2022-08-01T07:10:19;94739.97;;;42.85;12.25
40205;BME280;26963;42.666;23.366;2022-08-01T07:12:48;94683.69;;;42.79;11.84
40205;BME280;26963;42.666;23.366;2022-08-01T07:15:14;94732.72;;;43.58;11.84
40205;BME280;26963;42.666;23.366;2022-08-01T07:17:41;94709.59;;;43.82;11.23
40205;BME280;26963;42.666;23.366;2022-08-01T07:20:10;94727.41;;;44.13;10.86
40205;BME280;26963;42.666;23.366;2022-08-01T07:22:36;94757.25;;;44.44;11.10
40205;BME280;26963;42.666;23.366;2022-08-01T07:25:04;94716.97;;;44.44;10.79
40205;BME280;26963;42.666;23.366;2022-08-01T07:27:32;94754.38;;;44.50;11.23
40205;BME280;26963;42.666;23.366;2022-08-01T07:29:57;94713.97;;;44.30;11.28
40205;BME280;26963;42.666;23.366;2022-08-01T07:32:26;94764.63;;;44.89;11.22
40205;BME280;26963;42.666;23.366;2022-08-01T07:34:52;94731.59;;;44.84;11.39
40205;BME280;26963;42.666;23.366;2022-08-01T07:37:25;94739.72;;;45.24;10.23
40205;BME280;26963;42.666;23.366;2022-08-01T07:39:50;94707.97;;;45.18;10.66
40205;BME280;26963;42.666;23.366;2022-08-01T07:42:18;94755.47;;;45.69;10.16
40205;BME280;26963;42.666;23.366;2022-08-01T07:44:50;94722.75;;;45.54;9.45
40205;BME280;26963;42.666;23.366;2022-08-01T07:47:23;94718.72;;;45.44;9.47
40205;BME280;26963;42.666;23.366;2022-08-01T07:49:48;94758.88;;;45.86;9.93
40205;BME280;26963;42.666;23.366;2022-08-01T07:52:15;94765.41;;;46.00;10.00
40205;BME280;26963;42.666;23.366;2022-08-01T07:54:40;94771.78;;;46.26;9.41
40205;BME280;26963;42.666;23.366;2022-08-01T07:57:15;94738.13;;;46.03;9.00
40205;BME280;26963;42.666;23.366;2022-08-01T07:59:44;94731.25;;;45.98;9.49
40205;BME280;26963;42.666;23.366;2022-08-01T08:02:13;94767.13;;;46.47;9.56
40205;BME280;26963;42.666;23.366;2022-08-01T08:04:38;94731.34;;;46.31;9.54
40205;BME280;26963;42.666;23.366;2022-08-01T08:07:07;94757.69;;;46.58;9.26
40205;BME280;26963;42.666;23.366;2022-08-01T08:09:36;94713.31;;;46.34;9.79
40205;BME280;26963;42.666;23.366;2022-08-01T08:12:09;94730.34;;;46.47;9.58
40205;BME280;26963;42.666;23.366;2022-08-01T08:14:37;94709.22;;;45.91;9.95
40205;BME280;26963;42.666;23.366;2022-08-01T08:17:04;94710.56;;;45.84;9.37
40205;BME280;26963;42.666;23.366;2022-08-01T08:19:30;94720.63;;;46.23;9.97
40205;BME280;26963;42.666;23.366;2022-08-01T08:21:59;94741.66;;;46.47;9.90
40205;BME280;26963;42.666;23.366;2022-08-01T08:24:25;94691.06;;;46.24;9.54
40205;BME280;26963;42.666;23.366;2022-08-01T08:26:54;94760.31;;;46.56;9.56
40205;BME280;26963;42.666;23.366;2022-08-01T08:29:23;94747.16;;;46.59;9.62
40205;BME280;26963;42.666;23.366;2022-08-01T08:31:51;94747.28;;;46.85;10.08
40205;BME280;26963;42.666;23.366;2022-08-01T08:34:23;94717.88;;;46.56;9.73
40205;BME280;26963;42.666;23.366;2022-08-01T08:36:53;94737.22;;;46.33;9.44
40205;BME280;26963;42.666;23.366;2022-08-01T08:39:20;94763.72;;;46.68;9.06
40205;BME280;26963;42.666;23.366;2022-08-01T08:41:46;94725.69;;;43.98;11.26
40205;BME280;26963;42.666;23.366;2022-08-01T08:44:18;94737.38;;;42.53;11.55
40205;BME280;26963;42.666;23.366;2022-08-01T08:46:49;94760.47;;;42.02;13.24
40205;BME280;26963;42.666;23.366;2022-08-01T08:49:24;94694.19;;;42.79;11.78
40205;BME280;26963;42.666;23.366;2022-08-01T08:51:51;94715.59;;;43.39;12.07
40205;BME280;26963;42.666;23.366;2022-08-01T08:54:19;94738.41;;;42.73;11.97
40205;BME280;26963;42.666;23.366;2022-08-01T08:56:48;94714.31;;;43.40;11.93
40205;BME280;26963;42.666;23.366;2022-08-01T08:59:22;94720.84;;;43.82;12.55
40205;BME280;26963;42.666;23.366;2022-08-01T09:01:50;94746.59;;;44.20;13.65
40205;BME280;26963;42.666;23.366;2022-08-01T09:04:16;94739.28;;;43.94;11.28
40205;BME280;26963;42.666;23.366;2022-08-01T09:06:42;94758.75;;;43.87;14.38
40205;BME280;26963;42.666;23.366;2022-08-01T09:09:09;94756.28;;;43.66;11.29
40205;BME280;26963;42.666;23.366;2022-08-01T09:11:35;94745.56;;;43.42;13.51
40205;BME280;26963;42.666;23.366;2022-08-01T09:14:16;94732.25;;;43.37;11.94
40205;BME280;26963;42.666;23.366;2022-08-01T09:16:47;94742.50;;;43.28;14.00
40205;BME280;26963;42.666;23.366;2022-08-01T09:19:25;94728.16;;;42.47;12.61
40205;BME280;26963;42.666;23.366;2022-08-01T09:21:57;94737.31;;;41.27;12.60
40205;BME280;26963;42.666;23.366;2022-08-01T09:24:25;94731.75;;;40.16;14.28
40205;BME280;26963;42.666;23.366;2022-08-01T09:26:52;94739.81;;;38.80;14.70
40205;BME280;26963;42.666;23.366;2022-08-01T09:29:26;94697.81;;;37.42;15.78
40205;BME280;26963;42.666;23.366;2022-08-01T09:31:52;94682.00;;;36.01;16.88
40205;BME280;26963;42.666;23.366;2022-08-01T09:34:30;94686.66;;;35.08;18.34
40205;BME280;26963;42.666;23.366;2022-08-01T09:36:58;94684.75;;;34.55;18.87
40205;BME280;26963;42.666;23.366;2022-08-01T09:39:35;94742.88;;;34.49;18.45
40205;BME280;26963;42.666;23.366;2022-08-01T09:42:24;94738.41;;;33.85;18.65
40205;BME280;26963;42.666;23.366;2022-08-01T09:44:50;94668.53;;;33.04;20.82
40205;BME280;26963;42.666;23.366;2022-08-01T09:47:18;94726.31;;;33.05;19.99
40205;BME280;26963;42.666;23.366;2022-08-01T09:49:53;94684.53;;;32.61;20.44
40205;BME280;26963;42.666;23.366;2022-08-01T09:52:23;94701.34;;;32.41;21.22
40205;BME280;26963;42.666;23.366;2022-08-01T09:54:59;94732.81;;;32.47;20.96
40205;BME280;26963;42.666;23.366;2022-08-01T09:57:26;94737.25;;;32.57;23.15
40205;BME280;26963;42.666;23.366;2022-08-01T09:59:57;94724.72;;;32.65;21.82
40205;BME280;26963;42.666;23.366;2022-08-01T10:02:52;94715.28;;;32.50;21.55
40205;BME280;26963;42.666;23.366;2022-08-01T10:05:31;94699.22;;;32.32;22.28
40205;BME280;26963;42.666;23.366;2022-08-01T10:08:11;94696.03;;;32.04;21.65
40205;BME280;26963;42.666;23.366;2022-08-01T10:10:38;94677.88;;;31.74;21.80
40205;BME280;26963;42.666;23.366;2022-08-01T10:13:11;94700.88;;;31.70;22.11
40205;BME280;26963;42.666;23.366;2022-08-01T10:16:12;94709.34;;;31.80;23.48
40205;BME280;26963;42.666;23.366;2022-08-01T10:18:41;94718.75;;;31.82;22.62
40205;BME280;26963;42.666;23.366;2022-08-01T10:21:13;94706.00;;;31.72;22.86
40205;BME280;26963;42.666;23.366;2022-08-01T10:23:44;94703.94;;;31.43;22.71
40205;BME280;26963;42.666;23.366;2022-08-01T10:26:22;94700.22;;;31.00;23.20
40205;BME280;26963;42.666;23.366;2022-08-01T10:28:51;94716.78;;;31.00;23.77
40205;BME280;26963;42.666;23.366;2022-08-01T10:31:20;94693.41;;;30.88;23.82
40205;BME280;26963;42.666;23.366;2022-08-01T10:33:47;94705.72;;;31.00;23.70
40205;BME280;26963;42.666;23.366;2022-08-01T10:36:12;94711.13;;;31.08;24.08
40205;BME280;26963;42.666;23.366;2022-08-01T10:38:54;94709.41;;;31.14;23.92
